createdAt,value
2023-04-26T00:03:01.934Z,96678.28
2023-04-26T00:06:08.875Z,96676.94
2023-04-26T00:09:13.468Z,96668.75
2023-04-26T00:12:18.290Z,96676.44
2023-04-26T00:15:22.773Z,96669.19
2023-04-26T00:18:27.245Z,96666.66
2023-04-26T00:21:31.918Z,96664.31
2023-04-26T00:24:36.497Z,96668.88
2023-04-26T00:27:40.996Z,96660.88
2023-04-26T00:30:48.811Z,96662.31
2023-04-26T00:33:53.359Z,96676.59
2023-04-26T00:36:57.905Z,96681.31
2023-04-26T00:40:02.619Z,96676.22
2023-04-26T00:43:07.408Z,96672.28
2023-04-26T00:46:12.512Z,96674.03
2023-04-26T00:49:19.539Z,96675.41
2023-04-26T00:52:24.678Z,96672.28
2023-04-26T00:55:29.542Z,96667.59
2023-04-26T00:58:34.096Z,96680.63
2023-04-26T01:01:40.612Z,96682.81
2023-04-26T01:04:46.764Z,96676.84
2023-04-26T01:07:51.991Z,96675.91
2023-04-26T01:10:57.290Z,96671.13
2023-04-26T01:14:02.129Z,96673.34
2023-04-26T01:17:06.843Z,96668.53
2023-04-26T01:20:14.339Z,96680.63
2023-04-26T01:23:18.930Z,96689.19
2023-04-26T01:26:23.401Z,96685.13
2023-04-26T01:29:28.119Z,96683.63
2023-04-26T01:32:34.906Z,96635.75
2023-04-26T01:35:39.535Z,96686.13
2023-04-26T01:38:44.092Z,96687.19
2023-04-26T01:41:48.546Z,96695.97
2023-04-26T01:44:53.022Z,96694.31
2023-04-26T01:47:58.293Z,96694.72
2023-04-26T01:51:02.788Z,96698.03
2023-04-26T01:54:08.691Z,96699.00
2023-04-26T01:57:13.191Z,96700.09
2023-04-26T02:00:17.870Z,96698.28
2023-04-26T02:03:25.878Z,96701.53
2023-04-26T02:06:31.604Z,96705.06
2023-04-26T02:09:36.101Z,96698.34
2023-04-26T02:12:41.808Z,96686.31
2023-04-26T02:15:47.377Z,96697.03
2023-04-26T02:18:53.513Z,96700.50
2023-04-26T02:21:58.553Z,96700.13
2023-04-26T02:25:03.390Z,96696.69
2023-04-26T02:28:08.004Z,96705.25
2023-04-26T02:31:12.488Z,96706.75
2023-04-26T02:34:18.006Z,96704.25
2023-04-26T02:37:23.524Z,96701.47
2023-04-26T02:40:28.089Z,96697.34
2023-04-26T02:43:33.591Z,96697.22
2023-04-26T02:46:38.261Z,96701.25
2023-04-26T02:49:43.624Z,96696.34
2023-04-26T02:52:48.173Z,96697.47
2023-04-26T02:55:52.640Z,96699.19
2023-04-26T02:58:57.162Z,96697.72
2023-04-26T03:02:01.993Z,96700.81
2023-04-26T03:05:06.746Z,96703.09
2023-04-26T03:08:11.253Z,96702.31
2023-04-26T03:11:15.949Z,96704.41
2023-04-26T03:14:20.791Z,96712.97
2023-04-26T03:17:25.744Z,96707.16
2023-04-26T03:20:30.288Z,96701.31
2023-04-26T03:23:34.860Z,96698.19
2023-04-26T03:26:39.364Z,96700.31
2023-04-26T03:29:44.299Z,96696.81
2023-04-26T03:32:49.544Z,96700.59
2023-04-26T03:35:55.959Z,96682.63
2023-04-26T03:39:00.539Z,96706.41
2023-04-26T03:42:05.212Z,96712.25
2023-04-26T03:45:11.506Z,96715.31
2023-04-26T03:48:17.060Z,96720.41
2023-04-26T03:51:21.954Z,96721.44
2023-04-26T03:54:27.957Z,96669.56
2023-04-26T03:57:32.978Z,96713.25
2023-04-26T04:00:39.109Z,96716.53
2023-04-26T04:03:44.154Z,96734.09
2023-04-26T04:06:48.742Z,96726.44
2023-04-26T04:09:53.189Z,96727.31
2023-04-26T04:12:58.215Z,96732.94
2023-04-26T04:16:04.547Z,96736.72
2023-04-26T04:19:09.312Z,96739.84
2023-04-26T04:22:13.972Z,96736.56
2023-04-26T04:25:21.088Z,96738.28
2023-04-26T04:28:27.155Z,96745.84
2023-04-26T04:31:31.917Z,96748.28
2023-04-26T04:34:36.872Z,96751.16
2023-04-26T04:37:43.922Z,96752.56
2023-04-26T04:40:50.173Z,96759.81
2023-04-26T04:43:55.848Z,96760.13
2023-04-26T04:47:00.733Z,96758.91
2023-04-26T04:50:09.171Z,96766.66
2023-04-26T04:53:14.404Z,96773.09
2023-04-26T04:56:21.790Z,96727.97
2023-04-26T04:59:27.955Z,96786.50
2023-04-26T05:02:33.010Z,96796.19
2023-04-26T05:05:38.694Z,96781.63
2023-04-26T05:08:43.163Z,96779.84
2023-04-26T05:11:47.943Z,96785.13
2023-04-26T05:14:53.871Z,96787.84
2023-04-26T05:17:59.632Z,96785.03
2023-04-26T05:21:04.449Z,96785.84
2023-04-26T05:24:10.985Z,96785.25
2023-04-26T05:27:16.440Z,96786.38
2023-04-26T05:30:28.906Z,96793.25
2023-04-26T05:33:42.487Z,96787.78
2023-04-26T05:36:56.338Z,96786.25
2023-04-26T05:40:00.853Z,96798.34
2023-04-26T05:43:05.491Z,96799.16
2023-04-26T05:46:12.021Z,96755.16
2023-04-26T05:49:18.138Z,96784.16
2023-04-26T05:52:22.652Z,96782.03
2023-04-26T05:55:27.459Z,96785.78
2023-04-26T05:58:33.986Z,96765.44
2023-04-26T06:01:39.608Z,96814.97
2023-04-26T06:04:44.540Z,96814.00
2023-04-26T06:07:53.279Z,96816.63
2023-04-26T06:10:57.811Z,96822.13
2023-04-26T06:14:02.389Z,96831.25
2023-04-26T06:17:09.541Z,96784.16
2023-04-26T06:20:16.438Z,96822.75
2023-04-26T06:23:21.107Z,96827.06
2023-04-26T06:26:25.692Z,96840.38
2023-04-26T06:29:32.852Z,96835.88
2023-04-26T06:32:38.702Z,96834.88
2023-04-26T06:35:43.557Z,96839.84
2023-04-26T06:38:49.604Z,96823.66
2023-04-26T06:41:54.747Z,96837.97
2023-04-26T06:45:06.680Z,96839.78
2023-04-26T06:48:13.949Z,96831.41
2023-04-26T06:51:18.453Z,96841.13
2023-04-26T06:54:28.881Z,96847.53
2023-04-26T06:57:33.391Z,96850.66
2023-04-26T07:00:38.014Z,96852.19
2023-04-26T07:03:42.946Z,96854.00
2023-04-26T07:06:47.706Z,96855.16
2023-04-26T07:09:52.584Z,96846.66
2023-04-26T07:12:57.050Z,96847.97
2023-04-26T07:16:01.632Z,96847.94
2023-04-26T07:19:06.966Z,96843.78
2023-04-26T07:22:12.034Z,96857.34
2023-04-26T07:25:17.315Z,96854.06
2023-04-26T07:28:21.764Z,96850.59
2023-04-26T07:31:26.318Z,96853.63
2023-04-26T07:34:30.824Z,96856.56
2023-04-26T07:37:35.387Z,96853.59
2023-04-26T07:40:40.404Z,96847.47
2023-04-26T07:43:44.813Z,96849.13
2023-04-26T07:46:51.125Z,96845.50
2023-04-26T07:49:55.671Z,96850.66
2023-04-26T07:53:00.333Z,96834.00
2023-04-26T07:56:07.695Z,96848.28
2023-04-26T07:59:12.165Z,96850.81
2023-04-26T08:02:17.132Z,96851.66
2023-04-26T08:05:22.930Z,96840.44
2023-04-26T08:08:28.070Z,96848.63
2023-04-26T08:11:32.679Z,96841.94
2023-04-26T08:14:38.421Z,96844.09
2023-04-26T08:17:43.000Z,96843.75
2023-04-26T08:20:47.627Z,96834.16
2023-04-26T08:23:54.194Z,96842.09
2023-04-26T08:26:59.140Z,96848.66
2023-04-26T08:30:05.255Z,96842.06
2023-04-26T08:33:10.290Z,96842.03
2023-04-26T08:36:15.304Z,96845.84
2023-04-26T08:39:19.791Z,96854.25
2023-04-26T08:42:25.831Z,96856.16
2023-04-26T08:45:31.227Z,96845.03
2023-04-26T08:48:37.441Z,96847.28
2023-04-26T08:51:44.835Z,96853.81
2023-04-26T08:54:51.707Z,96852.16
2023-04-26T08:57:58.445Z,96821.50
2023-04-26T09:01:03.767Z,96839.59
2023-04-26T09:04:08.941Z,96841.88
2023-04-26T09:07:21.279Z,96833.66
2023-04-26T09:10:26.300Z,96836.81
2023-04-26T09:13:30.925Z,96841.84
2023-04-26T09:16:36.903Z,96839.00
2023-04-26T09:19:44.705Z,96835.09
2023-04-26T09:22:54.617Z,96840.41
2023-04-26T09:26:21.518Z,96833.81
2023-04-26T09:29:26.025Z,96847.47
2023-04-26T09:32:51.151Z,96833.19
2023-04-26T09:35:55.681Z,96832.84
2023-04-26T09:39:00.412Z,96836.50
2023-04-26T09:42:05.264Z,96838.78
2023-04-26T09:45:10.356Z,96840.06
2023-04-26T09:48:33.238Z,96832.69
2023-04-26T09:51:37.785Z,96823.81
2023-04-26T09:54:46.637Z,96850.34
2023-04-26T09:57:51.190Z,96841.31
2023-04-26T10:00:56.412Z,96825.25
2023-04-26T10:04:02.134Z,96834.63
2023-04-26T10:07:10.020Z,96822.72
2023-04-26T10:10:14.874Z,96821.66
2023-04-26T10:13:19.603Z,96830.19
2023-04-26T10:16:24.462Z,96815.03
2023-04-26T10:19:32.893Z,96795.66
2023-04-26T10:22:45.164Z,96821.22
2023-04-26T10:25:49.816Z,96823.34
2023-04-26T10:28:59.972Z,96819.28
2023-04-26T10:32:08.154Z,96820.59
2023-04-26T10:35:13.904Z,96793.31
2023-04-26T10:38:20.043Z,96812.78
2023-04-26T10:41:31.684Z,96809.25
2023-04-26T10:44:42.759Z,96803.19
2023-04-26T10:47:47.757Z,96808.75
2023-04-26T10:51:01.752Z,96817.03
2023-04-26T10:54:07.354Z,96823.28
2023-04-26T10:57:12.316Z,96819.31
2023-04-26T11:00:34.865Z,96818.09
2023-04-26T11:03:41.278Z,96803.28
2023-04-26T11:06:57.716Z,96805.44
2023-04-26T11:10:09.454Z,96759.00
2023-04-26T11:13:16.801Z,96792.78
2023-04-26T11:16:21.611Z,96794.75
2023-04-26T11:19:26.853Z,96791.38
2023-04-26T11:22:31.476Z,96799.13
2023-04-26T11:25:39.409Z,96792.16
2023-04-26T11:28:45.289Z,96790.16
2023-04-26T11:31:56.613Z,96775.25
2023-04-26T11:35:01.373Z,96773.69
2023-04-26T11:38:05.943Z,96771.94
2023-04-26T11:41:11.347Z,96780.44
2023-04-26T11:44:19.978Z,96788.19
2023-04-26T11:47:26.035Z,96782.50
2023-04-26T11:50:32.980Z,96777.06
2023-04-26T11:53:43.733Z,96784.78
2023-04-26T11:56:48.286Z,96783.81
2023-04-26T12:00:08.734Z,96764.84
2023-04-26T12:03:16.378Z,96778.34
2023-04-26T12:06:29.033Z,96763.81
2023-04-26T12:09:33.467Z,96782.91
2023-04-26T12:12:37.913Z,96795.41
2023-04-26T12:15:42.380Z,96791.09
2023-04-26T12:18:51.983Z,96772.53
2023-04-26T12:21:56.594Z,96783.06
2023-04-26T12:25:07.465Z,96766.88
2023-04-26T12:28:13.751Z,96771.09
2023-04-26T12:31:18.510Z,96791.84
2023-04-26T12:34:23.205Z,96788.84
2023-04-26T12:37:27.736Z,96789.03
2023-04-26T12:40:33.709Z,96792.91
2023-04-26T12:43:38.143Z,96784.41
2023-04-26T12:46:42.791Z,96791.94
2023-04-26T12:49:47.305Z,96791.97
2023-04-26T12:52:51.928Z,96805.69
2023-04-26T12:55:56.361Z,96778.50
2023-04-26T12:59:00.911Z,96765.59
2023-04-26T13:02:05.714Z,96765.97
2023-04-26T13:05:10.778Z,96782.34
2023-04-26T13:08:15.611Z,96795.06
2023-04-26T13:11:20.351Z,96792.53
2023-04-26T13:14:24.910Z,96791.59
2023-04-26T13:17:29.409Z,96783.13
2023-04-26T13:20:34.015Z,96784.22
2023-04-26T13:23:38.536Z,96786.44
2023-04-26T13:26:43.035Z,96779.53
2023-04-26T13:29:47.486Z,96775.91
2023-04-26T13:32:52.599Z,96771.03
2023-04-26T13:35:57.049Z,96760.78
2023-04-26T13:39:01.721Z,96767.44
2023-04-26T13:42:06.184Z,96767.00
2023-04-26T13:45:11.190Z,96761.78
2023-04-26T13:48:16.004Z,96765.31
2023-04-26T13:51:21.721Z,96762.59
2023-04-26T13:54:26.913Z,96765.28
2023-04-26T13:57:32.715Z,96767.97
2023-04-26T14:00:37.650Z,96763.50
2023-04-26T14:03:42.790Z,96759.94
2023-04-26T14:06:47.505Z,96765.78
2023-04-26T14:09:52.066Z,96756.97
2023-04-26T14:12:56.780Z,96753.44
2023-04-26T14:16:01.452Z,96759.25
2023-04-26T14:19:07.969Z,96722.06
2023-04-26T14:22:12.944Z,96760.38
2023-04-26T14:25:17.613Z,96752.44
2023-04-26T14:28:22.319Z,96754.53
2023-04-26T14:31:28.103Z,96746.50
2023-04-26T14:34:34.288Z,96730.72
2023-04-26T14:37:39.894Z,96720.88
2023-04-26T14:40:45.408Z,96752.50
2023-04-26T14:43:50.745Z,96758.84
2023-04-26T14:46:55.259Z,96754.09
2023-04-26T14:49:59.915Z,96758.69
2023-04-26T14:53:04.572Z,96751.50
2023-04-26T14:56:09.482Z,96750.22
2023-04-26T14:59:15.965Z,96746.72
2023-04-26T15:02:21.533Z,96740.78
2023-04-26T15:05:26.298Z,96735.44
2023-04-26T15:08:30.838Z,96732.59
2023-04-26T15:11:35.395Z,96733.47
2023-04-26T15:14:39.874Z,96723.06
2023-04-26T15:17:44.455Z,96720.19
2023-04-26T15:20:49.044Z,96737.84
2023-04-26T15:23:53.790Z,96720.63
2023-04-26T15:26:58.270Z,96727.53
2023-04-26T15:30:05.713Z,96719.34
2023-04-26T15:33:12.653Z,96713.59
2023-04-26T15:36:19.710Z,96718.78
2023-04-26T15:39:24.188Z,96715.50
2023-04-26T15:42:28.671Z,96712.22
2023-04-26T15:45:35.707Z,96713.50
2023-04-26T15:48:40.372Z,96690.50
2023-04-26T15:51:44.861Z,96708.91
2023-04-26T15:54:49.344Z,96723.56
2023-04-26T15:57:53.886Z,96713.22
2023-04-26T16:00:58.343Z,96726.06
2023-04-26T16:04:05.213Z,96697.81
2023-04-26T16:07:09.864Z,96727.03
2023-04-26T16:10:14.556Z,96731.38
2023-04-26T16:13:20.831Z,96738.28
2023-04-26T16:16:25.686Z,96737.63
2023-04-26T16:19:30.963Z,96737.53
2023-04-26T16:22:36.998Z,96709.25
2023-04-26T16:25:42.568Z,96731.97
2023-04-26T16:28:47.247Z,96742.31
2023-04-26T16:31:52.465Z,96733.78
2023-04-26T16:34:57.189Z,96732.41
2023-04-26T16:38:01.838Z,96737.13
2023-04-26T16:41:07.206Z,96726.34
2023-04-26T16:44:11.669Z,96728.59
2023-04-26T16:47:16.113Z,96724.66
2023-04-26T16:50:20.766Z,96721.16
2023-04-26T16:53:25.215Z,96727.88
2023-04-26T16:56:30.021Z,96730.22
2023-04-26T16:59:34.534Z,96738.78
2023-04-26T17:02:40.335Z,96740.22
2023-04-26T17:05:46.992Z,96741.88
2023-04-26T17:08:51.717Z,96746.41
2023-04-26T17:11:56.220Z,96741.25
2023-04-26T17:15:04.344Z,96746.69
2023-04-26T17:18:09.962Z,96751.94
2023-04-26T17:21:14.486Z,96757.91
2023-04-26T17:24:19.382Z,96762.59
2023-04-26T17:27:24.801Z,96753.47
2023-04-26T17:30:29.349Z,96758.44
2023-04-26T17:33:36.796Z,96755.69
2023-04-26T17:36:41.280Z,96764.41
2023-04-26T17:39:45.901Z,96758.00
2023-04-26T17:42:50.575Z,96758.66
2023-04-26T17:45:55.597Z,96765.97
2023-04-26T17:49:00.236Z,96769.81
2023-04-26T17:52:04.844Z,96777.78
2023-04-26T17:55:10.105Z,96767.69
2023-04-26T17:58:15.292Z,96775.91
2023-04-26T18:01:21.024Z,96778.53
2023-04-26T18:04:25.801Z,96782.78
2023-04-26T18:07:30.585Z,96783.25
2023-04-26T18:10:35.433Z,96788.81
2023-04-26T18:13:39.856Z,96786.28
2023-04-26T18:16:44.365Z,96792.91
2023-04-26T18:19:49.895Z,96801.16
2023-04-26T18:22:54.428Z,96803.53
2023-04-26T18:25:58.892Z,96805.53
2023-04-26T18:29:03.449Z,96803.63
2023-04-26T18:32:08.094Z,96796.59
2023-04-26T18:35:12.767Z,96803.72
2023-04-26T18:38:17.630Z,96810.38
2023-04-26T18:41:23.716Z,96798.91
2023-04-26T18:44:28.260Z,96816.59
2023-04-26T18:47:34.851Z,96814.38
2023-04-26T18:50:39.387Z,96820.22
2023-04-26T18:53:44.614Z,96830.03
2023-04-26T18:56:49.176Z,96829.81
2023-04-26T18:59:56.455Z,96834.59
2023-04-26T19:03:01.129Z,96833.00
2023-04-26T19:06:09.397Z,96837.28
2023-04-26T19:09:14.436Z,96836.09
2023-04-26T19:12:19.106Z,96833.69
2023-04-26T19:15:23.594Z,96838.91
2023-04-26T19:18:28.162Z,96843.38
2023-04-26T19:21:33.110Z,96846.06
2023-04-26T19:24:37.663Z,96818.56
2023-04-26T19:27:42.254Z,96838.88
2023-04-26T19:30:46.755Z,96842.69
2023-04-26T19:33:51.486Z,96844.00
2023-04-26T19:36:56.016Z,96852.78
2023-04-26T19:40:00.647Z,96855.69
2023-04-26T19:43:05.229Z,96844.78
2023-04-26T19:46:15.150Z,96849.41
2023-04-26T19:49:19.825Z,96845.50
2023-04-26T19:52:24.413Z,96849.88
2023-04-26T19:55:29.548Z,96855.09
2023-04-26T19:58:34.094Z,96857.75
2023-04-26T20:01:38.689Z,96862.19
2023-04-26T20:04:44.940Z,96835.38
2023-04-26T20:07:49.443Z,96864.75
2023-04-26T20:10:53.876Z,96860.06
2023-04-26T20:13:58.458Z,96853.25
2023-04-26T20:17:03.192Z,96860.47
2023-04-26T20:20:08.925Z,96857.59
2023-04-26T20:23:13.422Z,96855.28
2023-04-26T20:26:17.915Z,96867.75
2023-04-26T20:29:22.616Z,96868.38
2023-04-26T20:32:27.080Z,96872.06
2023-04-26T20:35:31.644Z,96876.91
2023-04-26T20:38:36.169Z,96877.00
2023-04-26T20:41:40.823Z,96872.94
2023-04-26T20:44:45.647Z,96879.28
2023-04-26T20:47:50.101Z,96882.59
2023-04-26T20:50:55.022Z,96874.22
2023-04-26T20:53:59.511Z,96885.06
2023-04-26T20:57:04.410Z,96888.38
2023-04-26T21:00:13.101Z,96869.88
2023-04-26T21:03:17.706Z,96891.66
2023-04-26T21:06:22.321Z,96895.84
2023-04-26T21:09:26.817Z,96899.13
2023-04-26T21:12:31.290Z,96893.31
2023-04-26T21:15:35.949Z,96905.97
2023-04-26T21:18:40.724Z,96905.78
2023-04-26T21:21:45.379Z,96898.84
2023-04-26T21:24:52.871Z,96902.97
2023-04-26T21:27:58.701Z,96907.41
2023-04-26T21:31:07.492Z,96911.63
2023-04-26T21:34:13.707Z,96920.94
2023-04-26T21:37:18.256Z,96911.41
2023-04-26T21:40:22.735Z,96912.06
2023-04-26T21:43:29.013Z,96893.78
2023-04-26T21:46:33.712Z,96899.81
2023-04-26T21:49:39.583Z,96921.47
2023-04-26T21:52:44.164Z,96912.53
2023-04-26T21:55:52.762Z,96916.06
2023-04-26T21:58:57.345Z,96923.72
2023-04-26T22:02:02.929Z,96930.75
2023-04-26T22:05:07.897Z,96928.16
2023-04-26T22:08:12.405Z,96928.50
2023-04-26T22:11:16.970Z,96922.59
2023-04-26T22:14:21.629Z,96926.91
2023-04-26T22:17:26.300Z,96943.13
2023-04-26T22:20:30.949Z,96942.47
2023-04-26T22:23:36.714Z,96938.66
2023-04-26T22:26:41.299Z,96940.88
2023-04-26T22:29:45.974Z,96942.88
2023-04-26T22:32:53.536Z,96946.06
2023-04-26T22:35:59.486Z,96955.09
2023-04-26T22:39:03.994Z,96952.91
2023-04-26T22:42:08.637Z,96947.34
2023-04-26T22:45:13.697Z,96944.34
2023-04-26T22:48:18.246Z,96953.31
2023-04-26T22:51:22.921Z,96958.44
2023-04-26T22:54:27.372Z,96955.09
2023-04-26T22:57:31.903Z,96966.28
2023-04-26T23:00:36.622Z,96948.19
2023-04-26T23:03:41.374Z,96949.94
2023-04-26T23:06:46.097Z,96949.88
2023-04-26T23:09:50.654Z,96959.91
2023-04-26T23:12:55.348Z,96956.59
2023-04-26T23:15:59.823Z,96955.81
2023-04-26T23:19:04.364Z,96965.38
2023-04-26T23:22:09.051Z,96959.72
2023-04-26T23:25:13.539Z,96958.63
2023-04-26T23:28:18.102Z,96962.13
2023-04-26T23:31:22.794Z,96968.91
2023-04-26T23:34:27.363Z,96967.31
2023-04-26T23:37:31.937Z,96974.34
2023-04-26T23:40:37.195Z,96968.19
2023-04-26T23:43:42.089Z,96946.69
2023-04-26T23:46:46.818Z,96954.56
2023-04-26T23:49:52.697Z,96966.41
2023-04-26T23:52:57.242Z,96962.91
2023-04-26T23:56:01.794Z,96960.41
2023-04-26T23:59:06.754Z,96954.41
